Time;durP1;ratioP1;P1;durP2;ratioP2;P2;SDS_P1;SDS_P2;PMS_P1;PMS_P2;Temp;Humidity;BMP_temperature;BMP_pressure;BME280_temperature;BME280_humidity;BME280_pressure;Samples;Min_cycle;Max_cycle;Signal;HPM_P1;HPM_P2
2023/10/11 00:00:40;;;;;;;22.88;17.25;;;;;;;14.34;100.00;100695.41;5024004;28;20077;-61
2023/10/11 00:03:18;;;;;;;24.83;17.42;;;;;;;14.35;100.00;100690.94;5022035;28;20132;-60
2023/10/11 00:05:46;;;;;;;19.35;17.00;;;;;;;14.35;100.00;100689.16;5020102;28;20149;-58
2023/10/11 00:08:18;;;;;;;21.27;16.98;;;;;;;14.35;100.00;100693.59;5023997;28;20127;-59
2023/10/11 00:10:49;;;;;;;22.63;18.05;;;;;;;14.34;100.00;100686.63;5027864;28;20061;-58
2023/10/11 00:13:17;;;;;;;23.17;18.02;;;;;;;14.33;100.00;100688.44;5021673;28;20045;-60
2023/10/11 00:15:49;;;;;;;20.13;17.20;;;;;;;14.34;100.00;100684.81;5027607;28;20144;-61
2023/10/11 00:18:20;;;;;;;21.77;17.25;;;;;;;14.28;100.00;100685.28;5029161;28;20224;-61
2023/10/11 00:20:52;;;;;;;23.73;17.67;;;;;;;14.27;100.00;100691.50;5029792;28;20153;-61
2023/10/11 00:23:22;;;;;;;30.60;19.75;;;;;;;14.27;100.00;100690.66;5025384;28;20144;-61
2023/10/11 00:25:51;;;;;;;24.00;17.08;;;;;;;14.26;100.00;100681.88;5025397;28;20057;-61
2023/10/11 00:28:26;;;;;;;21.63;18.17;;;;;;;14.24;100.00;100675.88;5026819;28;20136;-60
2023/10/11 00:30:56;;;;;;;23.40;17.70;;;;;;;14.24;100.00;100672.38;5026474;28;20049;-61
2023/10/11 00:33:24;;;;;;;27.35;16.55;;;;;;;14.23;100.00;100679.47;5025276;28;20124;-60
2023/10/11 00:36:04;;;;;;;24.27;16.73;;;;;;;14.23;100.00;100675.94;5026994;28;20045;-61
2023/10/11 00:38:42;;;;;;;23.95;17.00;;;;;;;14.19;100.00;100676.19;5027418;28;20553;-60
2023/10/11 00:41:17;;;;;;;22.25;16.52;;;;;;;14.17;100.00;100671.97;5026690;28;20057;-59
2023/10/11 00:43:54;;;;;;;22.98;18.13;;;;;;;14.15;100.00;100672.09;5026541;28;20133;-59
2023/10/11 00:46:29;;;;;;;22.70;18.05;;;;;;;14.13;100.00;100673.13;5025074;28;20081;-59
2023/10/11 00:49:08;;;;;;;22.55;17.70;;;;;;;14.14;100.00;100670.41;5025544;28;22075;-61
2023/10/11 00:51:36;;;;;;;21.65;15.75;;;;;;;14.14;100.00;100667.75;5026980;28;20145;-59
2023/10/11 00:54:07;;;;;;;20.45;17.08;;;;;;;14.14;100.00;100665.09;5010325;28;20626;-60
2023/10/11 00:56:34;;;;;;;24.48;16.80;;;;;;;14.13;100.00;100660.75;5022424;28;20472;-59
2023/10/11 00:59:08;;;;;;;26.80;15.32;;;;;;;14.14;100.00;100657.16;5022193;28;20474;-61
2023/10/11 01:01:40;;;;;;;27.88;17.13;;;;;;;14.21;100.00;100664.66;5015110;28;20074;-60
2023/10/11 01:04:09;;;;;;;23.85;14.30;;;;;;;14.22;100.00;100661.03;5024968;28;20128;-61
2023/10/11 01:06:37;;;;;;;19.33;14.98;;;;;;;14.22;100.00;100648.63;5024078;28;20099;-60
2023/10/11 01:09:13;;;;;;;19.10;14.80;;;;;;;14.23;100.00;100649.47;5023205;28;20144;-59
2023/10/11 01:11:41;;;;;;;22.38;14.75;;;;;;;14.24;100.00;100644.09;5023936;28;20136;-59
2023/10/11 01:14:09;;;;;;;21.65;14.70;;;;;;;14.25;100.00;100644.94;5020817;28;20141;-60
2023/10/11 01:16:37;;;;;;;20.70;14.15;;;;;;;14.26;100.00;100649.25;5026037;28;20133;-58
2023/10/11 01:19:10;;;;;;;18.30;13.60;;;;;;;14.27;100.00;100643.84;5009725;28;20474;-57
2023/10/11 01:21:39;;;;;;;18.17;11.80;;;;;;;14.28;100.00;100642.91;5025750;28;20141;-61
2023/10/11 01:24:08;;;;;;;19.10;13.48;;;;;;;14.25;100.00;100643.13;5018647;28;20136;-62
2023/10/11 01:26:37;;;;;;;17.98;12.43;;;;;;;14.25;100.00;100642.28;5027057;28;20475;-61
2023/10/11 01:29:05;;;;;;;25.38;13.32;;;;;;;14.25;100.00;100634.34;5025903;28;20141;-61
2023/10/11 01:31:34;;;;;;;20.88;12.55;;;;;;;14.25;100.00;100632.53;5025921;28;20129;-60
2023/10/11 01:34:02;;;;;;;15.30;11.98;;;;;;;14.24;100.00;100630.84;5025318;28;20041;-57
2023/10/11 01:36:30;;;;;;;16.67;11.80;;;;;;;14.26;100.00;100636.03;5028432;28;20049;-59
2023/10/11 01:39:08;;;;;;;24.50;11.98;;;;;;;14.25;100.00;100635.19;5027883;28;20100;-60
2023/10/11 01:41:40;;;;;;;24.67;12.02;;;;;;;14.26;100.00;100620.13;5027178;28;20092;-60
2023/10/11 01:44:08;;;;;;;17.45;11.60;;;;;;;14.24;100.00;100612.31;5023513;28;20049;-59
2023/10/11 01:46:35;;;;;;;20.23;11.65;;;;;;;14.19;100.00;100619.75;5025346;28;20081;-59
2023/10/11 01:49:05;;;;;;;19.65;11.68;;;;;;;14.15;100.00;100618.28;5025266;28;20107;-59
2023/10/11 01:51:39;;;;;;;14.95;10.88;;;;;;;14.16;100.00;100606.75;5028308;28;20515;-58
2023/10/11 01:54:09;;;;;;;18.20;11.48;;;;;;;14.13;100.00;100601.66;5024476;28;20116;-62
2023/10/11 01:56:40;;;;;;;18.60;11.07;;;;;;;14.10;100.00;100604.56;5026298;28;20093;-61
2023/10/11 01:59:11;;;;;;;18.02;11.43;;;;;;;14.07;100.00;100602.97;5026193;28;20049;-62
2023/10/11 02:01:40;;;;;;;20.30;11.77;;;;;;;14.06;100.00;100609.22;5026168;28;20107;-61
2023/10/11 02:04:17;;;;;;;22.15;11.32;;;;;;;14.04;100.00;100597.88;5025457;28;20065;-61
2023/10/11 02:06:49;;;;;;;21.27;12.52;;;;;;;14.01;100.00;100595.50;5004811;28;20053;-60
2023/10/11 02:09:20;;;;;;;20.58;11.70;;;;;;;13.99;100.00;100597.38;5023792;28;20690;-61
2023/10/11 02:11:52;;;;;;;17.38;11.38;;;;;;;13.99;100.00;100593.91;5020068;28;20062;-61
2023/10/11 02:14:22;;;;;;;19.70;11.43;;;;;;;13.97;100.00;100596.66;5023543;28;20465;-62
2023/10/11 02:16:53;;;;;;;17.48;11.68;;;;;;;13.92;100.00;100596.16;5010590;28;20045;-59
2023/10/11 02:19:23;;;;;;;19.40;11.73;;;;;;;13.88;100.00;100590.25;5027261;28;20478;-59
2023/10/11 02:21:53;;;;;;;15.45;11.48;;;;;;;13.86;100.00;100592.16;5023797;28;20140;-63
2023/10/11 02:24:20;;;;;;;15.38;10.50;;;;;;;13.84;100.00;100587.94;5026557;28;20722;-60
2023/10/11 02:26:51;;;;;;;17.45;10.32;;;;;;;13.81;100.00;100580.22;5024676;28;20140;-58
2023/10/11 02:29:22;;;;;;;16.08;10.15;;;;;;;13.79;100.00;100575.03;5024910;28;20095;-58
2023/10/11 02:31:50;;;;;;;19.25;10.68;;;;;;;13.77;100.00;100578.75;5026978;28;20137;-59
2023/10/11 02:34:18;;;;;;;29.48;12.35;;;;;;;13.75;100.00;100575.38;5030057;28;20103;-61
2023/10/11 02:36:56;;;;;;;17.13;11.10;;;;;;;13.72;100.00;100571.16;5028227;28;20089;-60
2023/10/11 02:39:42;;;;;;;17.17;11.32;;;;;;;13.71;100.00;100576.56;5026157;28;20057;-60
2023/10/11 02:42:10;;;;;;;19.67;11.45;;;;;;;13.69;100.00;100566.09;5026844;28;20083;-60
2023/10/11 02:44:39;;;;;;;16.58;10.88;;;;;;;13.67;100.00;100558.25;5024290;28;20136;-58
2023/10/11 02:47:08;;;;;;;18.10;12.07;;;;;;;13.65;100.00;100560.19;5025328;28;20111;-59
2023/10/11 02:49:36;;;;;;;16.50;11.20;;;;;;;13.61;100.00;100558.72;5026633;28;20096;-59
2023/10/11 02:52:06;;;;;;;19.83;11.35;;;;;;;13.59;100.00;100555.31;5027382;28;20080;-58
2023/10/11 02:54:38;;;;;;;21.13;11.90;;;;;;;13.61;100.00;100560.50;5027003;28;20080;-61
2023/10/11 02:57:09;;;;;;;18.63;11.63;;;;;;;13.60;100.00;100556.19;5024220;28;20123;-59
2023/10/11 02:59:36;;;;;;;17.65;11.68;;;;;;;13.59;100.00;100550.03;5026306;28;20083;-60
2023/10/11 03:02:04;;;;;;;20.23;11.27;;;;;;;13.58;100.00;100537.75;5024004;28;20563;-60
2023/10/11 03:04:35;;;;;;;24.52;11.20;;;;;;;13.57;100.00;100530.78;5023017;28;20049;-60
2023/10/11 03:07:02;;;;;;;16.38;11.63;;;;;;;13.57;100.00;100527.31;5022157;28;20459;-60
2023/10/11 03:09:33;;;;;;;20.05;11.68;;;;;;;13.58;100.00;100534.28;5017297;28;20044;-56
2023/10/11 03:12:17;;;;;;;15.80;10.93;;;;;;;13.56;100.00;100531.75;5018253;28;20091;-60
2023/10/11 03:14:46;;;;;;;19.47;10.73;;;;;;;13.57;100.00;100528.16;5022924;28;20125;-58
2023/10/11 03:17:14;;;;;;;18.75;9.88;;;;;;;13.56;100.00;100529.09;5007003;28;20487;-60
2023/10/11 03:19:45;;;;;;;15.00;10.20;;;;;;;13.60;100.00;100524.44;5025832;28;20068;-62
2023/10/11 03:22:21;;;;;;;14.77;10.00;;;;;;;13.58;100.00;100526.34;5026752;28;20114;-61
2023/10/11 03:24:53;;;;;;;21.77;11.10;;;;;;;13.57;100.00;100522.00;5021948;28;20141;-60
2023/10/11 03:27:23;;;;;;;18.17;10.35;;;;;;;13.56;100.00;100520.34;5013597;28;20144;-61
2023/10/11 03:29:56;;;;;;;15.80;10.70;;;;;;;13.56;100.00;100515.88;5012056;28;20056;-59
2023/10/11 03:32:26;;;;;;;20.75;10.48;;;;;;;13.55;100.00;100510.69;5023762;28;20053;-59
2023/10/11 03:34:55;;;;;;;19.35;9.88;;;;;;;13.55;100.00;100522.09;5023811;28;20052;-62
2023/10/11 03:37:24;;;;;;;14.52;8.98;;;;;;;13.53;100.00;100513.44;5018985;28;21023;-61
2023/10/11 03:39:58;;;;;;;16.40;10.48;;;;;;;13.52;100.00;100506.47;5024936;28;20144;-58
2023/10/11 03:45:11;;;;;;;;;;;;;;;13.47;100.00;100505.13;5006071;28;20056;-61
2023/10/11 03:47:39;;;;;;;19.80;9.95;;;;;;;13.47;100.00;100495.41;5021351;28;20020;-61
2023/10/11 03:50:11;;;;;;;18.45;10.23;;;;;;;13.46;100.00;100493.69;5023428;28;20064;-62
2023/10/11 03:52:40;;;;;;;13.05;9.02;;;;;;;13.45;100.00;100499.09;5001654;28;20077;-61
2023/10/11 03:55:10;;;;;;;17.00;9.07;;;;;;;13.43;100.00;100489.47;5021987;28;22155;-60
2023/10/11 03:57:45;;;;;;;18.33;9.65;;;;;;;13.42;100.00;100490.44;5021581;28;20128;-60
2023/10/11 04:02:57;;;;;;;18.67;9.85;;;;;;;13.39;100.00;100482.72;5024378;28;20140;-60
2023/10/11 04:05:29;;;;;;;20.50;9.55;;;;;;;13.37;100.00;100486.44;5023947;28;20059;-61
2023/10/11 04:07:56;;;;;;;23.42;10.85;;;;;;;13.36;100.00;100479.47;5026019;28;20152;-59
2023/10/11 04:10:39;;;;;;;19.45;10.02;;;;;;;13.34;100.00;100491.97;5023865;28;20477;-61
2023/10/11 04:13:14;;;;;;;19.40;9.27;;;;;;;13.32;100.00;100488.56;5028676;28;20080;-61
2023/10/11 04:15:42;;;;;;;14.85;8.90;;;;;;;13.30;100.00;100485.19;5023349;28;20425;-60
2023/10/11 04:18:20;;;;;;;16.83;9.27;;;;;;;13.31;100.00;100492.16;5025575;28;20389;-58
2023/10/11 04:20:59;;;;;;;17.90;9.10;;;;;;;13.31;100.00;100487.72;5024632;28;20053;-59
2023/10/11 04:23:27;;;;;;;19.05;10.27;;;;;;;13.30;100.00;100487.84;5025335;28;20065;-58
2023/10/11 04:25:55;;;;;;;23.50;10.25;;;;;;;13.27;100.00;100472.19;5024382;28;20041;-60
2023/10/11 04:28:25;;;;;;;15.82;9.30;;;;;;;13.26;100.00;100483.72;5028186;28;20065;-61
2023/10/11 04:31:27;;;;;;;18.52;9.80;;;;;;;13.24;100.00;100481.22;5012285;28;20144;-60
2023/10/11 04:33:44;;;;;;;17.05;9.57;;;;;;;13.26;100.00;100486.38;5041004;28;20069;-61
2023/10/11 04:36:11;;;;;;;19.05;8.20;;;;;;;13.29;100.00;100484.38;5047251;28;20072;-59
2023/10/11 04:38:39;;;;;;;16.50;9.15;;;;;;;13.32;100.00;100483.28;5046906;28;20057;-60
2023/10/11 04:41:14;;;;;;;16.02;8.68;;;;;;;13.35;100.00;100480.41;5046603;28;20054;-62
2023/10/11 04:43:50;;;;;;;17.90;9.20;;;;;;;13.36;100.00;100479.47;5037809;28;20423;-59
2023/10/11 04:46:21;;;;;;;18.30;9.23;;;;;;;13.35;100.00;100472.50;5026524;28;20076;-60
2023/10/11 04:48:49;;;;;;;20.42;8.77;;;;;;;13.37;100.00;100476.72;5020793;28;20486;-60
2023/10/11 04:59:19;;;;;;;20.58;9.93;;;;;;;13.49;100.00;100463.53;5019270;28;20432;-60
2023/10/11 05:04:15;;;;;;;16.73;8.55;;;;;;;13.52;100.00;100463.31;5020324;28;20132;-61
2023/10/11 05:06:43;;;;;;;16.80;8.48;;;;;;;13.53;100.00;100473.78;5022322;28;20575;-60
2023/10/11 05:11:53;;;;;;;18.15;8.52;;;;;;;13.66;100.00;100479.00;5019599;28;20192;-59
2023/10/11 05:14:29;;;;;;;13.77;8.38;;;;;;;13.68;100.00;100480.56;4984693;28;20439;-59
2023/10/11 05:19:45;;;;;;;13.52;8.23;;;;;;;13.79;100.00;100469.22;5004705;28;20077;-61
2023/10/11 05:32:49;;;;;;;12.05;7.13;;;;;;;13.94;100.00;100461.91;5022470;28;20155;-61
2023/10/11 05:51:45;;;;;;;13.73;7.43;;;;;;;14.10;100.00;100461.59;5024134;28;20518;-59
2023/10/11 05:54:13;;;;;;;13.50;7.72;;;;;;;14.14;100.00;100465.72;5027713;28;20088;-59
2023/10/11 05:56:45;;;;;;;15.23;6.70;;;;;;;14.18;100.00;100467.13;5020632;28;20133;-58
2023/10/11 05:59:14;;;;;;;15.30;7.93;;;;;;;14.23;100.00;100461.50;5024969;28;20485;-59
2023/10/11 06:01:44;;;;;;;12.48;7.38;;;;;;;14.23;100.00;100459.72;5025396;28;20088;-59
2023/10/11 06:04:14;;;;;;;15.15;7.43;;;;;;;14.30;100.00;100460.06;5017068;28;20148;-60
2023/10/11 06:06:52;;;;;;;15.32;7.70;;;;;;;14.30;100.00;100452.13;5023524;28;20073;-61
2023/10/11 06:09:26;;;;;;;14.52;7.50;;;;;;;14.33;100.00;100441.31;5023187;28;20072;-60
2023/10/11 06:11:54;;;;;;;15.25;7.35;;;;;;;14.40;100.00;100450.44;5022544;28;20049;-60
2023/10/11 06:14:21;;;;;;;11.15;6.40;;;;;;;14.46;100.00;100455.28;5010452;28;20527;-58
2023/10/11 06:16:55;;;;;;;16.77;7.43;;;;;;;14.52;100.00;100449.53;5024695;28;20115;-61
2023/10/11 06:19:26;;;;;;;12.50;6.38;;;;;;;14.62;100.00;100439.03;5022851;28;20099;-59
2023/10/11 06:22:09;;;;;;;17.15;7.40;;;;;;;14.66;100.00;100446.63;5030323;28;20136;-60
2023/10/11 06:24:37;;;;;;;12.40;6.60;;;;;;;14.73;100.00;100448.81;5025305;28;20089;-61
2023/10/11 06:29:45;;;;;;;11.00;6.00;;;;;;;14.93;100.00;100451.56;5004125;28;20184;-60
2023/10/11 06:32:13;;;;;;;18.05;7.68;;;;;;;15.00;100.00;100451.09;5007551;28;20053;-61
2023/10/11 06:34:45;;;;;;;19.05;7.35;;;;;;;15.06;100.00;100448.75;5019791;28;20068;-61
2023/10/11 06:37:17;;;;;;;14.45;7.47;;;;;;;15.16;100.00;100452.34;5022604;28;20507;-61
2023/10/11 06:44:59;;;;;;;13.82;6.85;;;;;;;15.52;98.47;100457.44;5005416;28;20058;-61
2023/10/11 06:47:35;;;;;;;18.95;7.03;;;;;;;15.62;97.02;100461.00;5021809;28;20046;-60
2023/10/11 06:50:12;;;;;;;;;;;;;;;15.76;96.95;100462.56;5028711;28;20077;-61
2023/10/11 06:52:44;;;;;;;13.05;7.20;;;;;;;15.79;95.57;100457.84;5027748;28;19960;-61
2023/10/11 06:55:16;;;;;;;17.30;6.13;;;;;;;15.81;95.75;100466.53;5012627;28;20095;-60
2023/10/11 06:57:50;;;;;;;12.50;6.30;;;;;;;15.88;95.31;100461.53;5030195;28;20125;-60
2023/10/11 07:03:38;;;;;;;15.13;7.07;;;;;;;15.93;93.54;100469.94;5023050;28;20168;-59
2023/10/11 07:06:09;;;;;;;14.88;7.20;;;;;;;16.05;93.88;100460.13;5024460;28;20042;-57
2023/10/11 07:08:49;;;;;;;13.38;6.78;;;;;;;16.21;92.61;100468.50;5022552;28;20077;-59
2023/10/11 07:11:49;;;;;;;16.83;6.85;;;;;;;16.25;90.58;100466.38;5022752;28;20076;-60
2023/10/11 07:14:18;;;;;;;13.30;6.68;;;;;;;16.41;91.69;100477.41;5023355;28;20133;-59
2023/10/11 07:16:46;;;;;;;15.05;6.63;;;;;;;16.31;90.25;100457.91;5021514;28;20107;-57
2023/10/11 07:19:15;;;;;;;19.00;6.38;;;;;;;16.41;90.92;100458.81;5026957;28;20658;-60
2023/10/11 07:24:31;;;;;;;12.45;6.80;;;;;;;16.69;89.15;100465.22;5027428;28;20156;-61
2023/10/11 07:27:08;;;;;;;18.55;6.65;;;;;;;16.82;88.11;100465.88;5023088;28;20051;-61
2023/10/11 07:29:38;;;;;;;11.50;6.00;;;;;;;17.02;87.32;100450.84;5027516;28;20698;-61
2023/10/11 07:32:09;;;;;;;16.75;6.20;;;;;;;17.09;86.28;100451.94;4997118;28;20148;-59
2023/10/11 07:34:39;;;;;;;13.18;5.97;;;;;;;17.11;86.57;100458.00;5025572;28;20160;-61
2023/10/11 07:37:07;;;;;;;15.63;6.65;;;;;;;17.25;86.00;100470.06;5024515;28;20041;-59
2023/10/11 07:39:34;;;;;;;13.93;5.97;;;;;;;17.51;84.90;100473.00;5024795;28;20045;-59
2023/10/11 07:42:08;;;;;;;15.82;5.95;;;;;;;17.44;83.50;100461.25;5010691;28;20069;-60
2023/10/11 07:44:37;;;;;;;13.87;7.03;;;;;;;17.31;84.16;100477.47;5026004;28;20582;-61
2023/10/11 07:47:07;;;;;;;17.13;7.30;;;;;;;17.40;84.00;100459.84;5026826;28;20080;-61
2023/10/11 07:49:38;;;;;;;12.45;6.38;;;;;;;17.38;82.96;100460.00;5022888;28;20140;-58
2023/10/11 07:52:08;;;;;;;12.40;6.57;;;;;;;17.49;82.51;100455.53;5008263;28;20065;-59
2023/10/11 07:54:39;;;;;;;14.77;6.20;;;;;;;17.64;82.64;100454.97;5023947;28;20163;-60
2023/10/11 07:57:15;;;;;;;16.08;6.68;;;;;;;17.84;81.31;100453.19;5027591;28;20141;-61
2023/10/11 07:59:44;;;;;;;17.80;6.35;;;;;;;17.85;82.13;100440.69;5026454;28;20116;-61
2023/10/11 08:02:27;;;;;;;13.57;6.15;;;;;;;17.90;81.09;100438.44;5008368;28;20317;-60
2023/10/11 08:04:59;;;;;;;12.77;6.30;;;;;;;17.90;81.42;100438.44;5026416;28;20069;-61
2023/10/11 08:07:27;;;;;;;15.07;6.32;;;;;;;17.90;80.56;100449.09;5023810;28;20124;-59
2023/10/11 08:09:57;;;;;;;13.07;5.82;;;;;;;17.99;81.14;100445.59;5023107;28;20077;-60
2023/10/11 08:12:24;;;;;;;18.67;5.97;;;;;;;18.15;80.34;100445.00;5009416;28;20080;-61
2023/10/11 08:15:04;;;;;;;11.02;5.38;;;;;;;18.36;78.59;100442.13;5025846;28;20133;-61
2023/10/11 08:17:31;;;;;;;23.08;6.50;;;;;;;18.37;78.98;100439.34;5024577;28;20136;-60
2023/10/11 08:20:00;;;;;;;13.13;6.40;;;;;;;18.36;78.37;100431.47;5021108;28;20291;-59
2023/10/11 08:22:28;;;;;;;14.05;5.82;;;;;;;18.44;78.50;100426.25;5021894;28;20049;-60
2023/10/11 08:25:00;;;;;;;13.68;5.93;;;;;;;18.52;77.95;100437.03;5024313;28;20393;-57
2023/10/11 08:27:27;;;;;;;12.15;5.30;;;;;;;18.65;77.87;100440.22;5023838;28;20505;-61
2023/10/11 08:32:48;;;;;;;11.27;5.20;;;;;;;18.84;76.49;100443.81;5008398;28;20053;-60
2023/10/11 08:35:16;;;;;;;12.70;5.95;;;;;;;18.68;76.92;100437.22;5027568;28;20100;-60
2023/10/11 08:37:45;;;;;;;11.07;5.18;;;;;;;18.93;76.72;100429.56;5008910;28;20053;-61
2023/10/11 08:40:23;;;;;;;14.65;5.53;;;;;;;19.21;75.78;100436.56;5027883;28;20152;-60
2023/10/11 08:42:51;;;;;;;15.73;5.95;;;;;;;19.28;74.30;100436.81;5010427;28;20096;-58
2023/10/11 08:46:11;;;;;;;17.50;6.00;;;;;;;19.26;73.82;100457.44;5025928;28;20674;-60
2023/10/11 08:48:39;;;;;;;11.35;5.78;;;;;;;19.31;74.95;100455.16;5027143;28;20095;-59
2023/10/11 08:51:12;;;;;;;13.32;5.57;;;;;;;19.51;73.71;100455.03;5015045;28;20081;-60
2023/10/11 08:53:47;;;;;;;11.65;4.75;;;;;;;19.59;72.21;100465.81;5024345;28;20137;-61
2023/10/11 08:56:17;;;;;;;10.20;5.65;;;;;;;19.67;72.82;100441.84;5025251;28;20134;-59
2023/10/11 08:58:51;;;;;;;17.45;5.35;;;;;;;19.81;71.80;100441.31;5012385;28;20049;-63
2023/10/11 09:01:19;;;;;;;9.00;4.70;;;;;;;19.91;71.84;100443.91;5016810;28;20057;-61
2023/10/11 09:04:05;;;;;;;13.75;5.65;;;;;;;20.05;69.37;100446.03;5017213;28;20081;-60
2023/10/11 09:06:36;;;;;;;11.43;5.47;;;;;;;20.17;69.20;100450.13;5017817;28;20057;-60
2023/10/11 09:09:04;;;;;;;12.93;4.93;;;;;;;20.27;67.78;100435.81;4999999;28;20421;-59
2023/10/11 09:14:22;;;;;;;10.32;5.35;;;;;;;20.42;66.94;100437.72;5017957;28;20129;-59
2023/10/11 09:16:57;;;;;;;11.82;5.43;;;;;;;20.46;66.00;100436.41;5021104;28;20080;-60
2023/10/11 09:19:25;;;;;;;8.63;4.78;;;;;;;20.89;65.85;100431.09;5018174;28;20077;-61
2023/10/11 09:22:04;;;;;;;10.18;5.22;;;;;;;20.94;63.71;100450.22;4989964;28;20036;-60
2023/10/11 09:24:39;;;;;;;15.82;5.60;;;;;;;20.71;64.39;100452.59;5022308;28;20156;-61
2023/10/11 09:29:39;;;;;;;15.23;5.47;;;;;;;20.66;64.80;100462.94;5022904;28;20069;-60
2023/10/11 09:32:07;;;;;;;15.30;5.38;;;;;;;20.69;65.39;100465.31;5023059;28;20141;-61
2023/10/11 09:34:34;;;;;;;9.50;4.85;;;;;;;20.70;63.99;100465.16;5021390;28;20087;-60
2023/10/11 09:37:02;;;;;;;23.35;5.30;;;;;;;20.60;63.87;100467.09;5021246;28;20132;-57
2023/10/11 09:39:29;;;;;;;12.40;5.22;;;;;;;20.84;62.80;100458.34;5021709;28;20152;-59
2023/10/11 09:42:02;;;;;;;11.90;4.80;;;;;;;20.89;63.17;100456.06;5020307;28;20079;-59
2023/10/11 09:44:39;;;;;;;13.02;5.10;;;;;;;21.14;62.75;100442.75;5006351;28;20114;-59
2023/10/11 09:47:16;;;;;;;12.77;5.03;;;;;;;21.28;61.84;100443.94;5025821;28;20103;-59
2023/10/11 09:49:46;;;;;;;12.73;5.50;;;;;;;21.20;60.63;100448.28;5017551;28;20144;-60
2023/10/11 09:52:17;;;;;;;11.10;4.90;;;;;;;21.32;61.59;100445.34;5034626;28;20065;-59
2023/10/11 09:54:45;;;;;;;13.38;4.70;;;;;;;21.53;60.84;100447.56;5040948;28;20095;-58
2023/10/11 09:57:33;;;;;;;10.07;4.57;;;;;;;21.44;60.06;100460.09;5026233;28;20081;-57
2023/10/11 10:00:14;;;;;;;13.57;5.13;;;;;;;21.47;59.73;100449.03;5011252;28;20057;-58
2023/10/11 10:02:46;;;;;;;14.80;4.47;;;;;;;21.56;58.53;100445.34;5014305;28;20136;-45
2023/10/11 10:05:14;;;;;;;12.43;4.53;;;;;;;21.63;59.14;100441.03;5020877;28;20527;-44
2023/10/11 10:07:44;;;;;;;11.02;4.20;;;;;;;21.88;58.84;100449.88;5022350;28;20500;-44
2023/10/11 10:10:15;;;;;;;11.52;4.97;;;;;;;22.24;57.81;100445.06;5015536;28;20172;-45
2023/10/11 10:12:55;;;;;;;12.85;5.20;;;;;;;22.35;57.02;100426.91;5018188;28;20139;-47
2023/10/11 10:15:23;;;;;;;11.50;5.07;;;;;;;22.70;57.51;100434.53;5022161;28;20136;-44
2023/10/11 10:17:57;;;;;;;10.18;5.47;;;;;;;22.93;56.64;100441.84;5023474;28;20132;-46
2023/10/11 10:20:43;;;;;;;11.70;4.90;;;;;;;22.78;56.00;100449.72;5019462;28;20075;-44
2023/10/11 10:23:14;;;;;;;15.27;5.85;;;;;;;22.97;55.71;100441.31;5020646;28;20046;-44
2023/10/11 10:25:48;;;;;;;12.90;5.28;;;;;;;23.11;55.25;100447.78;5017628;28;20555;-45
2023/10/11 10:28:36;;;;;;;11.10;5.10;;;;;;;23.06;54.84;100452.84;5014539;28;20076;-43
2023/10/11 10:31:10;;;;;;;15.43;4.72;;;;;;;22.80;55.86;100453.09;5023866;28;20123;-46
2023/10/11 10:33:41;;;;;;;8.85;4.75;;;;;;;22.28;54.98;100447.38;5022086;28;20085;-44
2023/10/11 10:36:17;;;;;;;11.95;4.78;;;;;;;22.44;55.43;100441.97;5023688;28;20080;-44
2023/10/11 10:38:57;;;;;;;11.63;5.30;;;;;;;22.39;55.10;100430.94;5024419;28;20058;-45
2023/10/11 10:41:30;;;;;;;10.15;5.00;;;;;;;22.58;55.11;100433.22;5023949;28;20148;-43
2023/10/11 10:44:05;;;;;;;14.30;4.75;;;;;;;22.73;54.50;100436.84;5022503;28;20115;-44
2023/10/11 10:46:35;;;;;;;9.57;4.57;;;;;;;23.00;54.19;100421.31;5023024;28;20167;-43
2023/10/11 10:49:03;;;;;;;11.15;4.72;;;;;;;23.32;52.70;100433.72;5019542;28;20127;-45
2023/10/11 10:51:36;;;;;;;12.93;5.40;;;;;;;23.72;51.48;100423.72;5021813;28;20111;-44
2023/10/11 10:54:12;;;;;;;14.10;4.95;;;;;;;23.75;51.12;100421.50;5017520;28;20643;-43
2023/10/11 10:56:47;;;;;;;10.07;4.50;;;;;;;23.56;51.38;100419.28;5023685;28;20049;-44
2023/10/11 10:59:20;;;;;;;8.30;4.73;;;;;;;23.63;51.58;100424.75;5020095;28;20107;-46
2023/10/11 11:01:50;;;;;;;10.50;4.85;;;;;;;23.62;51.11;100423.94;5023705;28;20049;-43
2023/10/11 11:04:20;;;;;;;9.10;4.47;;;;;;;23.87;50.07;100427.28;5023851;28;20058;-43
2023/10/11 11:06:50;;;;;;;9.25;4.15;;;;;;;23.98;51.11;100426.00;5017797;28;20053;-45
2023/10/11 11:09:28;;;;;;;13.75;4.80;;;;;;;23.97;49.02;100416.28;5022672;28;20045;-44
2023/10/11 11:12:14;;;;;;;8.82;4.30;;;;;;;23.87;49.68;100421.09;4991001;28;20140;-44
2023/10/11 11:14:54;;;;;;;9.95;4.40;;;;;;;24.19;48.73;100407.31;5019161;28;20065;-45
2023/10/11 11:17:23;;;;;;;6.40;4.07;;;;;;;24.46;47.87;100413.09;5018977;28;20049;-47
2023/10/11 11:20:13;;;;;;;6.72;4.40;;;;;;;24.25;49.17;100408.41;5015078;28;20136;-45
2023/10/11 11:22:46;;;;;;;13.88;4.93;;;;;;;24.96;48.74;100401.53;5016575;28;20053;-41
2023/10/11 11:25:27;;;;;;;11.40;4.90;;;;;;;24.56;48.30;100410.97;5022759;28;20116;-45
2023/10/11 11:28:25;;;;;;;10.40;4.63;;;;;;;24.83;47.56;100397.84;5024131;28;21153;-64
2023/10/11 11:31:03;;;;;;;10.73;4.82;;;;;;;25.21;46.64;100391.25;5008439;28;20088;-64
2023/10/11 11:33:47;;;;;;;9.80;4.32;;;;;;;25.78;46.10;100391.41;5027925;28;20713;-63
2023/10/11 11:36:36;;;;;;;10.95;4.80;;;;;;;26.26;44.00;100381.56;5025195;28;20635;-63
2023/10/11 11:39:25;;;;;;;13.52;4.40;;;;;;;25.56;45.64;100383.28;5019155;28;20054;-64
2023/10/11 11:41:57;;;;;;;9.18;4.57;;;;;;;25.42;45.72;100370.72;5022056;28;20235;-63
2023/10/11 11:44:27;;;;;;;11.43;4.07;;;;;;;25.52;44.60;100382.84;5019459;28;20049;-64
2023/10/11 11:46:55;;;;;;;14.43;5.13;;;;;;;25.07;45.60;100378.63;5020165;28;20142;-65
2023/10/11 11:49:26;;;;;;;12.77;4.20;;;;;;;25.74;45.35;100374.75;5023646;28;20081;-64
2023/10/11 11:51:55;;;;;;;9.93;4.32;;;;;;;26.17;43.06;100356.63;5007509;28;20105;-65
2023/10/11 11:54:28;;;;;;;10.20;4.68;;;;;;;26.69;42.99;100360.63;5021979;28;20057;-62
2023/10/11 11:56:57;;;;;;;11.32;4.40;;;;;;;27.31;40.36;100382.22;5016949;28;20141;-64
2023/10/11 11:59:29;;;;;;;9.27;4.30;;;;;;;27.50;40.84;100370.59;5020898;28;20103;-63
2023/10/11 12:01:59;;;;;;;12.35;4.43;;;;;;;27.31;39.73;100360.59;5023357;28;20448;-64
2023/10/11 12:04:32;;;;;;;13.13;4.30;;;;;;;27.62;40.45;100362.69;5022715;28;20135;-63
2023/10/11 12:07:01;;;;;;;11.55;4.63;;;;;;;28.20;38.72;100395.34;5027023;28;20072;-64
2023/10/11 12:09:34;;;;;;;8.65;4.07;;;;;;;27.69;39.21;100356.25;5008830;28;20121;-63
2023/10/11 12:12:18;;;;;;;10.88;4.82;;;;;;;28.51;37.78;100352.19;4991089;28;20064;-64
2023/10/11 12:14:45;;;;;;;7.00;4.05;;;;;;;28.73;36.79;100385.22;5024554;28;20053;-63
2023/10/11 12:17:13;;;;;;;10.45;4.13;;;;;;;28.01;38.44;100353.75;5024730;28;20141;-64
2023/10/11 12:19:41;;;;;;;9.45;5.03;;;;;;;28.30;37.53;100341.59;5024864;28;20491;-64
2023/10/11 12:22:10;;;;;;;10.55;5.10;;;;;;;29.83;36.39;100343.41;5027254;28;20073;-63
2023/10/11 12:24:44;;;;;;;7.15;4.85;;;;;;;29.46;35.53;100362.28;5024341;28;20460;-64
2023/10/11 12:27:12;;;;;;;8.90;4.35;;;;;;;29.26;35.74;100363.25;5028868;28;20053;-63
2023/10/11 12:29:39;;;;;;;9.93;4.88;;;;;;;30.19;35.27;100345.38;5027038;28;20133;-63
2023/10/11 12:32:22;;;;;;;7.45;4.53;;;;;;;29.53;35.32;100347.59;5026117;28;20127;-63
2023/10/11 12:34:52;;;;;;;10.13;4.53;;;;;;;28.37;37.71;100345.16;5022078;28;20154;-62
2023/10/11 12:37:19;;;;;;;12.05;5.32;;;;;;;29.00;37.06;100349.88;5028510;28;20599;-62
2023/10/11 12:39:46;;;;;;;10.18;4.93;;;;;;;29.12;35.99;100345.41;5019820;28;20061;-64
2023/10/11 12:42:14;;;;;;;9.32;5.95;;;;;;;27.91;38.78;100356.03;5023057;28;20115;-63
2023/10/11 12:44:41;;;;;;;12.50;4.65;;;;;;;26.36;41.21;100335.31;5024587;28;20082;-64